Time;durP1;ratioP1;P1;durP2;ratioP2;P2;SDS_P1;SDS_P2;PMS_P1;PMS_P2;Temp;Humidity;BMP_temperature;BMP_pressure;BME280_temperature;BME280_humidity;BME280_pressure;Samples;Min_cycle;Max_cycle;Signal;HPM_P1;HPM_P2
2023/05/01 00:00:07;;;;;;;12.98;9.10;;;;;;;;;;4870569;29;20040;-54
2023/05/01 00:02:32;;;;;;;11.95;9.02;;;;;;;;;;4871475;29;20037;-57
2023/05/01 00:04:58;;;;;;;12.48;8.55;;;;;;;;;;4870824;29;20036;-53
2023/05/01 00:07:24;;;;;;;13.40;9.15;;;;;;;;;;4870011;29;20037;-54
2023/05/01 00:09:50;;;;;;;13.07;9.10;;;;;;;;;;4870249;29;20143;-55
2023/05/01 00:12:15;;;;;;;11.45;8.57;;;;;;;;;;4871665;29;20033;-58
2023/05/01 00:14:40;;;;;;;12.00;8.32;;;;;;;;;;4871068;29;20104;-56
2023/05/01 00:17:06;;;;;;;12.52;8.80;;;;;;;;;;4869603;29;20040;-53
2023/05/01 00:19:31;;;;;;;10.77;8.63;;;;;;;;;;4869252;29;20037;-57
2023/05/01 00:21:57;;;;;;;11.98;8.63;;;;;;;;;;4870098;29;20488;-58
2023/05/01 00:24:22;;;;;;;11.55;8.52;;;;;;;;;;4869865;29;20032;-53
2023/05/01 00:26:48;;;;;;;10.13;8.00;;;;;;;;;;4870158;29;21039;-56
2023/05/01 00:29:14;;;;;;;12.35;8.63;;;;;;;;;;4869459;29;20029;-57
2023/05/01 00:31:41;;;;;;;11.48;7.80;;;;;;;;;;4868825;29;20725;-58
2023/05/01 00:34:06;;;;;;;11.15;8.07;;;;;;;;;;4870507;29;20037;-59
2023/05/01 00:36:31;;;;;;;12.05;8.40;;;;;;;;;;4868870;29;20051;-57
2023/05/01 00:38:57;;;;;;;11.35;8.05;;;;;;;;;;4870446;29;20032;-56
2023/05/01 00:41:22;;;;;;;10.60;8.45;;;;;;;;;;4869601;29;20177;-57
2023/05/01 00:43:47;;;;;;;11.05;8.40;;;;;;;;;;4870917;29;20033;-54
2023/05/01 00:46:13;;;;;;;13.85;8.75;;;;;;;;;;4868060;29;20049;-56
2023/05/01 00:48:38;;;;;;;10.52;7.82;;;;;;;;;;4869188;29;20045;-55
2023/05/01 00:51:04;;;;;;;11.48;7.50;;;;;;;;;;4869861;29;20361;-54
2023/05/01 00:53:31;;;;;;;12.60;7.93;;;;;;;;;;4852835;29;20033;-57
2023/05/01 00:55:57;;;;;;;11.20;8.52;;;;;;;;;;4869426;29;20064;-56
2023/05/01 00:58:22;;;;;;;10.85;7.90;;;;;;;;;;4870626;29;20064;-55
2023/05/01 01:00:48;;;;;;;10.88;7.53;;;;;;;;;;4868814;29;20037;-57
2023/05/01 01:03:13;;;;;;;10.13;7.57;;;;;;;;;;4852749;29;20040;-58
2023/05/01 01:05:40;;;;;;;10.02;7.55;;;;;;;;;;4870256;29;20041;-55
2023/05/01 01:08:06;;;;;;;;;;;;;;;;;;4867954;29;20636;-52
2023/05/01 01:10:31;;;;;;;10.77;7.43;;;;;;;;;;4869222;29;19967;-57
2023/05/01 01:13:10;;;;;;;10.68;7.45;;;;;;;;;;4870766;29;20171;-53
2023/05/01 01:15:54;;;;;;;11.48;7.30;;;;;;;;;;4867757;29;20090;-54
2023/05/01 01:18:28;;;;;;;10.23;7.30;;;;;;;;;;4870779;29;20048;-55
2023/05/01 01:21:05;;;;;;;9.45;7.50;;;;;;;;;;4869895;29;20041;-50
2023/05/01 01:23:50;;;;;;;9.55;7.53;;;;;;;;;;4868941;29;20128;-55
2023/05/01 01:26:18;;;;;;;9.25;6.93;;;;;;;;;;4867871;29;20043;-53
2023/05/01 01:28:50;;;;;;;15.23;8.30;;;;;;;;;;4870191;29;20104;-52
2023/05/01 01:31:28;;;;;;;9.70;7.13;;;;;;;;;;4869214;29;20101;-52
2023/05/01 01:33:57;;;;;;;10.65;7.45;;;;;;;;;;4868262;29;20734;-53
2023/05/01 01:36:33;;;;;;;10.15;7.20;;;;;;;;;;4869410;29;20037;-55
2023/05/01 01:39:06;;;;;;;8.52;7.25;;;;;;;;;;4867618;29;20043;-59
2023/05/01 01:41:32;;;;;;;10.20;7.18;;;;;;;;;;4845159;29;20033;-53
2023/05/01 01:44:01;;;;;;;9.82;7.40;;;;;;;;;;4869614;29;20033;-52
2023/05/01 01:46:27;;;;;;;11.38;7.30;;;;;;;;;;4870651;29;20028;-55
2023/05/01 01:48:55;;;;;;;9.95;6.97;;;;;;;;;;4854967;29;20037;-56
2023/05/01 01:51:20;;;;;;;;;;;;;;;;;;4869977;29;20036;-54
2023/05/01 01:53:49;;;;;;;10.93;6.32;;;;;;;;;;4869543;29;19916;-54
2023/05/01 01:56:16;;;;;;;9.38;6.80;;;;;;;;;;4868667;29;20152;-54
2023/05/01 01:58:43;;;;;;;9.27;6.72;;;;;;;;;;4869081;29;20486;-58
2023/05/01 02:01:09;;;;;;;9.38;6.97;;;;;;;;;;4868164;29;20048;-53
2023/05/01 02:03:34;;;;;;;8.88;6.90;;;;;;;;;;4867399;29;20037;-53
2023/05/01 02:06:02;;;;;;;9.50;6.77;;;;;;;;;;4872374;29;20037;-55
2023/05/01 02:08:29;;;;;;;9.00;6.20;;;;;;;;;;4870614;29;20153;-56
2023/05/01 02:10:58;;;;;;;8.85;6.90;;;;;;;;;;4873573;29;20037;-56
2023/05/01 02:13:26;;;;;;;9.38;7.15;;;;;;;;;;4873735;29;20104;-56
2023/05/01 02:15:52;;;;;;;10.65;6.97;;;;;;;;;;4870916;29;20041;-59
2023/05/01 02:18:19;;;;;;;9.35;7.00;;;;;;;;;;4872835;29;20025;-53
2023/05/01 02:20:44;;;;;;;8.90;6.95;;;;;;;;;;4872552;29;20424;-57
2023/05/01 02:23:10;;;;;;;9.10;6.85;;;;;;;;;;4872406;29;20033;-52
2023/05/01 02:25:38;;;;;;;8.05;6.60;;;;;;;;;;4835033;29;20555;-55
2023/05/01 02:28:07;;;;;;;10.73;7.20;;;;;;;;;;4872809;29;20507;-56
2023/05/01 02:30:32;;;;;;;12.10;7.35;;;;;;;;;;4874605;29;20089;-54
2023/05/01 02:32:58;;;;;;;11.30;6.93;;;;;;;;;;4874095;29;20033;-55
2023/05/01 02:35:23;;;;;;;11.30;7.25;;;;;;;;;;4870182;29;20025;-52
2023/05/01 02:37:48;;;;;;;9.45;7.03;;;;;;;;;;4868665;29;20049;-56
2023/05/01 02:40:14;;;;;;;11.57;7.03;;;;;;;;;;4871672;29;20066;-52
2023/05/01 02:42:43;;;;;;;9.73;7.25;;;;;;;;;;4869714;29;20061;-56
2023/05/01 02:45:09;;;;;;;13.02;7.60;;;;;;;;;;4871669;29;20439;-54
2023/05/01 02:47:36;;;;;;;9.60;7.15;;;;;;;;;;4870571;29;20132;-55
2023/05/01 02:50:02;;;;;;;9.07;6.55;;;;;;;;;;4871447;29;20471;-54
2023/05/01 02:52:30;;;;;;;8.32;6.57;;;;;;;;;;4869353;29;20463;-54
2023/05/01 02:55:10;;;;;;;8.75;6.78;;;;;;;;;;4872904;29;20069;-56
2023/05/01 02:57:36;;;;;;;8.45;6.60;;;;;;;;;;4872175;29;20390;-56
2023/05/01 03:00:02;;;;;;;8.95;7.07;;;;;;;;;;4872064;29;20040;-51
2023/05/01 03:02:27;;;;;;;10.88;6.68;;;;;;;;;;4871631;29;20041;-56
2023/05/01 03:04:52;;;;;;;8.68;6.55;;;;;;;;;;4872241;29;20044;-56
2023/05/01 03:07:17;;;;;;;8.35;6.43;;;;;;;;;;4872154;29;20092;-52
2023/05/01 03:09:43;;;;;;;7.53;6.00;;;;;;;;;;4871780;29;20036;-57
2023/05/01 03:12:08;;;;;;;13.07;6.72;;;;;;;;;;4872026;29;20036;-57
2023/05/01 03:14:33;;;;;;;8.02;5.90;;;;;;;;;;4872218;29;20144;-55
2023/05/01 03:16:59;;;;;;;8.35;5.60;;;;;;;;;;4868933;29;20068;-53
2023/05/01 03:19:24;;;;;;;8.73;5.88;;;;;;;;;;4871375;29;20033;-54
2023/05/01 03:21:50;;;;;;;8.20;5.22;;;;;;;;;;4873617;29;20036;-54
2023/05/01 03:24:15;;;;;;;7.25;5.60;;;;;;;;;;4874351;29;20153;-56
2023/05/01 03:26:41;;;;;;;9.20;5.57;;;;;;;;;;4855971;29;20029;-58
2023/05/01 03:29:07;;;;;;;7.85;5.82;;;;;;;;;;4871205;29;20033;-54
2023/05/01 03:31:33;;;;;;;11.55;5.20;;;;;;;;;;4870748;29;20539;-52
2023/05/01 03:33:58;;;;;;;7.63;5.35;;;;;;;;;;4871240;29;20127;-54
2023/05/01 03:36:24;;;;;;;8.05;5.68;;;;;;;;;;4870389;29;20994;-54
2023/05/01 03:38:50;;;;;;;7.85;5.65;;;;;;;;;;4869863;29;20472;-53
2023/05/01 03:41:34;;;;;;;8.13;5.82;;;;;;;;;;4870919;29;20152;-54
2023/05/01 03:44:15;;;;;;;8.30;5.63;;;;;;;;;;4871313;29;20037;-56
2023/05/01 03:46:43;;;;;;;7.82;5.88;;;;;;;;;;4868418;29;20037;-54
2023/05/01 03:49:13;;;;;;;8.93;5.60;;;;;;;;;;4870157;29;20037;-60
2023/05/01 03:51:44;;;;;;;7.32;5.80;;;;;;;;;;4868588;29;20036;-52
2023/05/01 03:54:10;;;;;;;7.70;6.00;;;;;;;;;;4871931;29;20387;-54
2023/05/01 03:56:55;;;;;;;7.28;5.60;;;;;;;;;;4853476;29;20093;-55
2023/05/01 03:59:21;;;;;;;8.55;6.00;;;;;;;;;;4870132;29;20041;-52
2023/05/01 04:01:47;;;;;;;8.15;6.18;;;;;;;;;;4869087;29;20071;-53
2023/05/01 04:04:15;;;;;;;8.85;6.00;;;;;;;;;;4856584;29;20955;-56
2023/05/01 04:06:46;;;;;;;9.30;5.80;;;;;;;;;;4868441;29;20803;-58
2023/05/01 04:09:11;;;;;;;9.90;5.85;;;;;;;;;;4869330;29;20041;-55
2023/05/01 04:11:36;;;;;;;8.95;6.05;;;;;;;;;;4868698;29;20041;-53
2023/05/01 04:14:02;;;;;;;7.53;5.90;;;;;;;;;;4870002;29;20025;-57
2023/05/01 04:16:27;;;;;;;8.50;5.30;;;;;;;;;;4847459;29;20067;-55
2023/05/01 04:18:53;;;;;;;8.93;5.35;;;;;;;;;;4868413;29;20033;-55
2023/05/01 04:21:18;;;;;;;7.75;5.78;;;;;;;;;;4856870;29;20025;-56
2023/05/01 04:23:47;;;;;;;8.07;5.55;;;;;;;;;;4869400;29;20029;-57
2023/05/01 04:26:13;;;;;;;7.53;5.70;;;;;;;;;;4870384;29;20037;-55
2023/05/01 04:28:38;;;;;;;9.85;5.93;;;;;;;;;;4869442;29;20064;-56
2023/05/01 04:31:05;;;;;;;7.68;5.45;;;;;;;;;;4870424;29;20033;-55
2023/05/01 04:33:31;;;;;;;7.18;5.28;;;;;;;;;;4865898;29;20029;-52
2023/05/01 04:35:56;;;;;;;8.73;5.57;;;;;;;;;;4870176;29;20443;-54
2023/05/01 04:38:22;;;;;;;9.45;5.47;;;;;;;;;;4853902;29;20045;-54
2023/05/01 04:40:49;;;;;;;13.27;5.93;;;;;;;;;;4850412;29;20036;-53
2023/05/01 04:43:15;;;;;;;9.23;5.63;;;;;;;;;;4868334;29;20422;-56
2023/05/01 04:45:41;;;;;;;9.75;5.15;;;;;;;;;;4869250;29;20080;-56
2023/05/01 04:48:06;;;;;;;8.90;5.35;;;;;;;;;;4868389;29;20040;-52
2023/05/01 04:50:31;;;;;;;9.73;5.75;;;;;;;;;;4855545;29;20064;-57
2023/05/01 04:52:58;;;;;;;6.80;5.10;;;;;;;;;;4868785;29;20425;-60
2023/05/01 04:55:23;;;;;;;8.73;5.22;;;;;;;;;;4869208;29;20033;-56
2023/05/01 04:58:04;;;;;;;7.75;5.30;;;;;;;;;;4853670;29;20509;-57
2023/05/01 05:00:30;;;;;;;9.63;5.40;;;;;;;;;;4853066;29;20032;-56
2023/05/01 05:02:56;;;;;;;9.90;5.30;;;;;;;;;;4866906;29;20036;-53
2023/05/01 05:05:22;;;;;;;7.32;5.15;;;;;;;;;;4869723;29;20495;-54
2023/05/01 05:07:48;;;;;;;7.45;5.00;;;;;;;;;;4852504;29;20489;-55
2023/05/01 05:10:26;;;;;;;9.35;5.47;;;;;;;;;;4868038;29;20044;-56
2023/05/01 05:13:13;;;;;;;8.02;5.15;;;;;;;;;;4845627;29;20043;-58
2023/05/01 05:15:38;;;;;;;10.20;5.00;;;;;;;;;;4870719;29;20464;-55
2023/05/01 05:18:06;;;;;;;9.25;5.68;;;;;;;;;;4854034;29;20193;-52
2023/05/01 05:20:31;;;;;;;8.48;5.68;;;;;;;;;;4867734;29;20495;-60
2023/05/01 05:22:57;;;;;;;10.30;5.38;;;;;;;;;;4853935;29;20064;-56
2023/05/01 05:25:23;;;;;;;9.25;5.75;;;;;;;;;;4869728;29;20112;-57
2023/05/01 05:27:49;;;;;;;8.68;5.45;;;;;;;;;;4867030;29;20057;-55
2023/05/01 05:30:15;;;;;;;7.72;4.97;;;;;;;;;;4853908;29;20029;-57
2023/05/01 05:32:41;;;;;;;8.00;5.40;;;;;;;;;;4869270;29;20048;-54
2023/05/01 05:35:06;;;;;;;8.07;5.20;;;;;;;;;;4851753;29;20568;-56
2023/05/01 05:37:32;;;;;;;6.22;4.90;;;;;;;;;;4868155;29;20546;-57
2023/05/01 05:39:57;;;;;;;7.05;4.95;;;;;;;;;;4867109;29;20060;-58
2023/05/01 05:42:23;;;;;;;9.55;5.80;;;;;;;;;;4855141;29;20056;-51
2023/05/01 05:44:48;;;;;;;6.90;4.88;;;;;;;;;;4872364;29;20124;-56
2023/05/01 05:47:13;;;;;;;6.93;5.43;;;;;;;;;;4855265;29;20071;-57
2023/05/01 05:49:39;;;;;;;8.85;5.30;;;;;;;;;;4858859;29;20084;-57
2023/05/01 05:52:04;;;;;;;6.85;5.00;;;;;;;;;;4871340;29;20380;-57
2023/05/01 05:54:29;;;;;;;7.95;5.05;;;;;;;;;;4875286;29;20036;-56
2023/05/01 05:56:55;;;;;;;7.28;4.95;;;;;;;;;;4872244;29;20052;-54
2023/05/01 05:59:20;;;;;;;8.95;5.15;;;;;;;;;;4872896;29;20076;-54
2023/05/01 06:01:46;;;;;;;9.20;5.25;;;;;;;;;;4869538;29;20051;-57
2023/05/01 06:04:13;;;;;;;6.75;4.80;;;;;;;;;;4856905;29;20801;-56
2023/05/01 06:06:40;;;;;;;7.97;4.90;;;;;;;;;;4870074;29;20033;-54
2023/05/01 06:09:06;;;;;;;12.50;6.07;;;;;;;;;;4872565;29;20037;-55
2023/05/01 06:11:32;;;;;;;7.28;5.30;;;;;;;;;;4871956;29;20044;-52
2023/05/01 06:13:58;;;;;;;17.80;8.52;;;;;;;;;;4871487;29;20033;-59
2023/05/01 06:16:24;;;;;;;8.68;5.82;;;;;;;;;;4850163;29;20551;-58
2023/05/01 06:18:49;;;;;;;14.27;5.43;;;;;;;;;;4854688;29;20689;-55
2023/05/01 06:21:15;;;;;;;8.57;5.25;;;;;;;;;;4836043;29;20479;-57
2023/05/01 06:23:42;;;;;;;7.45;5.07;;;;;;;;;;4872175;29;20035;-59
2023/05/01 06:26:30;;;;;;;8.48;5.38;;;;;;;;;;4871063;29;20061;-57
2023/05/01 06:28:55;;;;;;;9.25;5.95;;;;;;;;;;4871558;29;20033;-57
2023/05/01 06:31:21;;;;;;;8.05;5.43;;;;;;;;;;4871907;29;20033;-56
2023/05/01 06:33:50;;;;;;;7.65;5.07;;;;;;;;;;4857098;29;20033;-53
2023/05/01 06:36:30;;;;;;;7.68;5.70;;;;;;;;;;4852188;29;20043;-57
2023/05/01 06:38:55;;;;;;;7.07;4.93;;;;;;;;;;4874505;29;20068;-54
2023/05/01 06:41:21;;;;;;;9.63;4.78;;;;;;;;;;4872784;29;20072;-58
2023/05/01 06:43:47;;;;;;;8.98;5.10;;;;;;;;;;4872199;29;20043;-55
2023/05/01 06:46:14;;;;;;;;;;;;;;;;;;4871767;29;20048;-53
2023/05/01 06:48:39;;;;;;;8.35;4.65;;;;;;;;;;4873074;29;19916;-58
2023/05/01 06:51:05;;;;;;;8.98;4.70;;;;;;;;;;4871491;29;20057;-53
2023/05/01 06:53:30;;;;;;;6.20;4.22;;;;;;;;;;4872466;29;20029;-55
2023/05/01 06:55:55;;;;;;;8.32;4.95;;;;;;;;;;4871171;29;20036;-58
2023/05/01 06:58:21;;;;;;;8.10;4.70;;;;;;;;;;4872792;29;20083;-56
2023/05/01 07:00:49;;;;;;;6.30;4.70;;;;;;;;;;4870426;29;20103;-53
2023/05/01 07:03:14;;;;;;;7.97;4.82;;;;;;;;;;4872888;29;20036;-55
2023/05/01 07:05:39;;;;;;;7.43;4.63;;;;;;;;;;4872161;29;20120;-54
2023/05/01 07:08:05;;;;;;;7.25;4.78;;;;;;;;;;4869956;29;20047;-57
2023/05/01 07:10:31;;;;;;;9.43;5.50;;;;;;;;;;4871220;29;20041;-59
2023/05/01 07:12:56;;;;;;;7.78;5.15;;;;;;;;;;4871662;29;20028;-53
2023/05/01 07:15:22;;;;;;;8.68;5.00;;;;;;;;;;4872463;29;20116;-57
2023/05/01 07:17:49;;;;;;;7.03;5.22;;;;;;;;;;4849296;29;20347;-56
2023/05/01 07:20:15;;;;;;;6.85;4.80;;;;;;;;;;4871527;29;20116;-56
2023/05/01 07:22:41;;;;;;;7.35;4.57;;;;;;;;;;4872223;29;20037;-55
2023/05/01 07:25:09;;;;;;;5.53;4.13;;;;;;;;;;4871842;29;20037;-57
2023/05/01 07:27:35;;;;;;;8.10;4.75;;;;;;;;;;4870875;29;20032;-54
2023/05/01 07:30:01;;;;;;;7.80;5.80;;;;;;;;;;4871753;29;20036;-56
2023/05/01 07:32:26;;;;;;;7.90;4.95;;;;;;;;;;4870055;29;20032;-57
2023/05/01 07:34:51;;;;;;;8.90;5.40;;;;;;;;;;4872545;29;20120;-54
2023/05/01 07:37:17;;;;;;;10.95;5.07;;;;;;;;;;4854818;29;20044;-53
2023/05/01 07:39:43;;;;;;;8.13;5.00;;;;;;;;;;4873024;29;20080;-57
2023/05/01 07:42:08;;;;;;;7.97;4.97;;;;;;;;;;4869356;29;20037;-56
2023/05/01 07:44:34;;;;;;;7.40;5.13;;;;;;;;;;4872248;29;20547;-57
2023/05/01 07:47:03;;;;;;;6.60;4.80;;;;;;;;;;4870063;29;20077;-56
2023/05/01 07:49:28;;;;;;;8.07;5.05;;;;;;;;;;4872957;29;20037;-53
2023/05/01 07:51:54;;;;;;;6.88;5.07;;;;;;;;;;4873095;29;20041;-50
2023/05/01 07:54:20;;;;;;;7.38;4.75;;;;;;;;;;4871800;29;20071;-52
2023/05/01 07:56:46;;;;;;;8.47;5.10;;;;;;;;;;4872683;29;20060;-54
2023/05/01 07:59:11;;;;;;;9.70;4.95;;;;;;;;;;4870606;29;20487;-58
2023/05/01 08:01:36;;;;;;;7.38;5.05;;;;;;;;;;4872501;29;20061;-54
2023/05/01 08:04:02;;;;;;;8.95;5.00;;;;;;;;;;4839126;29;20058;-54
2023/05/01 08:06:27;;;;;;;6.18;4.95;;;;;;;;;;4871788;29;20496;-54
2023/05/01 08:08:53;;;;;;;9.00;4.95;;;;;;;;;;4870996;29;20439;-59
2023/05/01 08:11:18;;;;;;;10.02;5.10;;;;;;;;;;4870795;29;20116;-55
2023/05/01 08:13:43;;;;;;;10.82;5.38;;;;;;;;;;4872200;29;20047;-57
2023/05/01 08:16:09;;;;;;;8.13;5.25;;;;;;;;;;4872299;29;20052;-52
2023/05/01 08:18:34;;;;;;;8.80;5.32;;;;;;;;;;4869374;29;20029;-54
2023/05/01 08:20:59;;;;;;;7.88;5.40;;;;;;;;;;4870307;29;20519;-54
2023/05/01 08:23:25;;;;;;;9.43;5.90;;;;;;;;;;4870819;29;20057;-59
2023/05/01 08:25:50;;;;;;;8.75;5.90;;;;;;;;;;4870560;29;20033;-55
2023/05/01 08:28:16;;;;;;;14.95;6.10;;;;;;;;;;4870790;29;20051;-57
2023/05/01 08:30:43;;;;;;;10.80;5.65;;;;;;;;;;4868925;29;20043;-60
2023/05/01 08:33:08;;;;;;;7.60;5.40;;;;;;;;;;4868985;29;20045;-52
2023/05/01 08:35:34;;;;;;;8.02;5.38;;;;;;;;;;4869314;29;20041;-56
2023/05/01 08:38:01;;;;;;;8.10;5.57;;;;;;;;;;4873656;29;20052;-56
2023/05/01 08:40:30;;;;;;;8.48;5.80;;;;;;;;;;4871107;29;20499;-55
2023/05/01 08:42:55;;;;;;;8.50;5.47;;;;;;;;;;4871239;29;20475;-53
2023/05/01 08:45:22;;;;;;;8.13;5.45;;;;;;;;;;4871633;29;20065;-56
2023/05/01 08:47:48;;;;;;;6.97;5.10;;;;;;;;;;4872278;29;20032;-54
2023/05/01 08:50:15;;;;;;;7.68;5.55;;;;;;;;;;4869320;29;20052;-52
2023/05/01 08:52:43;;;;;;;8.48;5.03;;;;;;;;;;4865565;29;20048;-55
2023/05/01 08:55:12;;;;;;;7.43;5.15;;;;;;;;;;4863701;29;20173;-57
2023/05/01 08:57:38;;;;;;;9.70;5.20;;;;;;;;;;4856309;29;20048;-53
2023/05/01 09:00:04;;;;;;;6.22;4.93;;;;;;;;;;4862158;29;20025;-55
2023/05/01 09:02:32;;;;;;;8.38;5.60;;;;;;;;;;4860050;29;20076;-56
2023/05/01 09:04:59;;;;;;;8.70;5.40;;;;;;;;;;4862781;29;20504;-56
2023/05/01 09:07:25;;;;;;;;;;;;;;;;;;4867628;29;20403;-56
2023/05/01 09:09:52;;;;;;;6.85;5.15;;;;;;;;;;4862554;29;20026;-54
2023/05/01 09:12:22;;;;;;;10.43;5.43;;;;;;;;;;4863385;29;20420;-54
2023/05/01 09:14:48;;;;;;;7.32;5.25;;;;;;;;;;4863316;29;20116;-55
2023/05/01 09:17:14;;;;;;;6.97;4.80;;;;;;;;;;4862740;29;20084;-56
2023/05/01 09:19:40;;;;;;;7.60;4.72;;;;;;;;;;4869314;29;20045;-57
2023/05/01 09:22:05;;;;;;;6.93;5.05;;;;;;;;;;4864073;29;20025;-56
2023/05/01 09:24:32;;;;;;;11.30;4.85;;;;;;;;;;4843327;29;20039;-53
2023/05/01 09:26:57;;;;;;;7.73;5.00;;;;;;;;;;4863464;29;20037;-54
2023/05/01 09:29:36;;;;;;;10.45;5.28;;;;;;;;;;4845517;29;20044;-57
2023/05/01 09:32:14;;;;;;;6.78;4.93;;;;;;;;;;4867782;29;20119;-57
2023/05/01 09:34:40;;;;;;;7.63;5.20;;;;;;;;;;4863391;29;20040;-54
2023/05/01 09:37:12;;;;;;;7.20;4.93;;;;;;;;;;4860235;29;20032;-54
2023/05/01 09:39:38;;;;;;;6.68;5.07;;;;;;;;;;4868908;29;20037;-55
2023/05/01 09:42:03;;;;;;;6.95;5.00;;;;;;;;;;4864080;29;20025;-55
2023/05/01 09:44:29;;;;;;;8.93;5.53;;;;;;;;;;4851295;29;20048;-56
2023/05/01 09:46:54;;;;;;;6.70;5.13;;;;;;;;;;4861767;29;20475;-56
2023/05/01 09:49:40;;;;;;;7.75;4.40;;;;;;;;;;4862488;29;20040;-56
2023/05/01 09:52:09;;;;;;;6.20;4.80;;;;;;;;;;4865047;29;20392;-53
2023/05/01 09:54:37;;;;;;;8.05;4.95;;;;;;;;;;4859829;29;20329;-56
2023/05/01 09:57:03;;;;;;;9.68;4.78;;;;;;;;;;4864406;29;20084;-62
2023/05/01 09:59:31;;;;;;;6.93;5.15;;;;;;;;;;4864920;29;20384;-57
2023/05/01 10:01:56;;;;;;;7.60;5.30;;;;;;;;;;4861245;29;20025;-54
2023/05/01 10:04:31;;;;;;;7.22;5.30;;;;;;;;;;4867208;29;20035;-55
2023/05/01 10:06:57;;;;;;;8.75;5.47;;;;;;;;;;4861132;29;20044;-53
2023/05/01 10:09:26;;;;;;;7.50;5.57;;;;;;;;;;4863525;29;20041;-56
2023/05/01 10:11:53;;;;;;;7.43;5.45;;;;;;;;;;4866375;29;20033;-55
2023/05/01 10:14:19;;;;;;;7.45;5.45;;;;;;;;;;4864475;29;20029;-54
2023/05/01 10:16:45;;;;;;;10.32;5.72;;;;;;;;;;4871038;29;20115;-56
2023/05/01 10:19:11;;;;;;;7.93;5.60;;;;;;;;;;4839605;29;20364;-52
2023/05/01 10:21:36;;;;;;;8.80;5.28;;;;;;;;;;4844708;29;20100;-54
2023/05/01 10:24:02;;;;;;;8.82;4.95;;;;;;;;;;4869031;29;20057;-52
2023/05/01 10:26:28;;;;;;;8.70;5.75;;;;;;;;;;4863843;29;20064;-55
2023/05/01 10:28:53;;;;;;;7.97;5.50;;;;;;;;;;4873699;29;20376;-56
2023/05/01 10:31:19;;;;;;;7.47;5.18;;;;;;;;;;4866988;29;20029;-54
2023/05/01 10:33:45;;;;;;;7.80;4.88;;;;;;;;;;4867459;29;20164;-57
2023/05/01 10:36:14;;;;;;;10.32;5.38;;;;;;;;;;4872566;29;20116;-52
2023/05/01 10:38:40;;;;;;;6.88;5.57;;;;;;;;;;4864320;29;20029;-54
2023/05/01 10:41:05;;;;;;;7.40;5.20;;;;;;;;;;4869439;29;20044;-56
2023/05/01 10:43:30;;;;;;;8.73;5.00;;;;;;;;;;4864743;29;20037;-57
2023/05/01 10:46:08;;;;;;;6.43;4.82;;;;;;;;;;4846049;29;20025;-53
2023/05/01 10:48:36;;;;;;;10.05;5.03;;;;;;;;;;4871564;29;20036;-56
2023/05/01 10:51:14;;;;;;;8.82;5.13;;;;;;;;;;4863966;29;20132;-57
2023/05/01 10:53:43;;;;;;;8.18;5.32;;;;;;;;;;4866817;29;20036;-57
2023/05/01 10:56:22;;;;;;;7.55;5.35;;;;;;;;;;4870930;29;20032;-53
2023/05/01 10:58:53;;;;;;;9.30;5.40;;;;;;;;;;4867081;29;20570;-53
2023/05/01 11:01:33;;;;;;;9.70;5.40;;;;;;;;;;4871960;29;20043;-57
2023/05/01 11:04:00;;;;;;;7.90;5.18;;;;;;;;;;4869624;29;20037;-54
2023/05/01 11:06:26;;;;;;;6.60;5.07;;;;;;;;;;4861581;29;20119;-55
2023/05/01 11:08:52;;;;;;;9.23;5.13;;;;;;;;;;4847644;29;20089;-53
2023/05/01 11:11:20;;;;;;;10.32;5.25;;;;;;;;;;4865002;29;20446;-56
2023/05/01 11:14:07;;;;;;;8.35;5.43;;;;;;;;;;4865135;29;20037;-56
2023/05/01 11:16:32;;;;;;;;;;;;;;;;;;4870003;29;20057;-55
2023/05/01 11:18:57;;;;;;;7.90;4.90;;;;;;;;;;4863824;29;19970;-55
2023/05/01 11:21:28;;;;;;;6.90;4.95;;;;;;;;;;4870121;29;20076;-57
2023/05/01 11:23:53;;;;;;;7.47;5.65;;;;;;;;;;4863060;29;20033;-52
2023/05/01 11:26:21;;;;;;;9.82;5.43;;;;;;;;;;4864296;29;21430;-57
2023/05/01 11:28:46;;;;;;;8.50;5.20;;;;;;;;;;4844858;29;20071;-57
2023/05/01 11:31:16;;;;;;;6.38;4.43;;;;;;;;;;4865090;29;20060;-56
2023/05/01 11:33:41;;;;;;;6.65;4.38;;;;;;;;;;4868795;29;20036;-59
2023/05/01 11:36:06;;;;;;;8.65;4.53;;;;;;;;;;4864026;29;20267;-56
2023/05/01 11:38:32;;;;;;;6.63;4.60;;;;;;;;;;4865684;29;20033;-58
2023/05/01 11:40:58;;;;;;;6.20;4.43;;;;;;;;;;4872398;29;20025;-57
2023/05/01 11:43:24;;;;;;;7.75;5.03;;;;;;;;;;4864669;29;20124;-54
2023/05/01 11:45:51;;;;;;;5.93;4.60;;;;;;;;;;4871087;29;20035;-52
2023/05/01 11:48:16;;;;;;;7.57;5.15;;;;;;;;;;4862454;29;20452;-54
2023/05/01 11:50:42;;;;;;;6.72;4.90;;;;;;;;;;4863207;29;20033;-59
2023/05/01 11:53:11;;;;;;;7.70;4.60;;;;;;;;;;4869098;29;20033;-57
2023/05/01 11:55:39;;;;;;;7.72;4.75;;;;;;;;;;4848111;29;20081;-57
2023/05/01 11:58:05;;;;;;;8.90;4.70;;;;;;;;;;4862984;29;20040;-54
2023/05/01 12:00:30;;;;;;;8.38;4.68;;;;;;;;;;4867171;29;20132;-56
2023/05/01 12:03:05;;;;;;;6.35;5.10;;;;;;;;;;4862472;29;20029;-56
2023/05/01 12:05:31;;;;;;;6.82;4.95;;;;;;;;;;4871111;29;20044;-55
2023/05/01 12:08:06;;;;;;;7.93;4.78;;;;;;;;;;4863871;29;20033;-56
2023/05/01 12:10:32;;;;;;;7.25;4.65;;;;;;;;;;4863656;29;20040;-53
2023/05/01 12:12:57;;;;;;;10.57;5.50;;;;;;;;;;4867014;29;20037;-58
2023/05/01 12:15:23;;;;;;;6.55;4.70;;;;;;;;;;4863746;29;20493;-55
2023/05/01 12:17:49;;;;;;;7.88;5.40;;;;;;;;;;4871671;29;20041;-56
2023/05/01 12:20:14;;;;;;;5.90;4.18;;;;;;;;;;4864704;29;20037;-57
2023/05/01 12:22:49;;;;;;;7.80;4.80;;;;;;;;;;4865694;29;20441;-54
2023/05/01 12:25:15;;;;;;;9.02;5.15;;;;;;;;;;4866697;29;20049;-56
2023/05/01 12:27:44;;;;;;;8.60;4.93;;;;;;;;;;4861456;29;20060;-55
2023/05/01 12:30:10;;;;;;;6.97;5.00;;;;;;;;;;4846022;29;20066;-55
2023/05/01 12:32:35;;;;;;;7.07;4.30;;;;;;;;;;4864970;29;20060;-55
2023/05/01 12:35:10;;;;;;;6.72;3.90;;;;;;;;;;4862013;29;20029;-55
2023/05/01 12:37:36;;;;;;;7.07;4.03;;;;;;;;;;4871186;29;20041;-56
2023/05/01 12:40:03;;;;;;;6.50;3.90;;;;;;;;;;4861273;29;20037;-54
2023/05/01 12:42:28;;;;;;;6.13;4.18;;;;;;;;;;4861571;29;20033;-56
2023/05/01 12:44:58;;;;;;;7.03;3.97;;;;;;;;;;4871075;29;20387;-57
2023/05/01 12:47:25;;;;;;;7.40;3.90;;;;;;;;;;4865013;29;20376;-55
2023/05/01 12:49:50;;;;;;;;;;;;;;;;;;4869795;29;20029;-52
2023/05/01 12:52:15;;;;;;;6.33;4.23;;;;;;;;;;4862679;29;19918;-57
2023/05/01 12:54:42;;;;;;;6.77;4.37;;;;;;;;;;4865260;29;20087;-56
2023/05/01 12:57:10;;;;;;;9.15;4.35;;;;;;;;;;4870995;29;20033;-58
2023/05/01 12:59:37;;;;;;;8.95;4.10;;;;;;;;;;4864933;29;20124;-54
2023/05/01 13:02:03;;;;;;;5.10;3.83;;;;;;;;;;4852181;29;20048;-55
2023/05/01 13:04:29;;;;;;;7.15;4.18;;;;;;;;;;4839859;29;20029;-57
2023/05/01 13:06:55;;;;;;;5.37;3.83;;;;;;;;;;4846739;29;20098;-57
2023/05/01 13:09:26;;;;;;;7.60;4.22;;;;;;;;;;4870415;29;20519;-57
2023/05/01 13:11:58;;;;;;;5.50;4.03;;;;;;;;;;4830202;29;20514;-57
2023/05/01 13:14:24;;;;;;;7.82;4.30;;;;;;;;;;4867703;29;20037;-53
2023/05/01 13:16:50;;;;;;;5.85;3.75;;;;;;;;;;4865232;29;20037;-54
2023/05/01 13:19:27;;;;;;;8.57;4.10;;;;;;;;;;4863655;29;20029;-52
2023/05/01 13:21:54;;;;;;;6.43;4.32;;;;;;;;;;4868851;29;20032;-56
2023/05/01 13:24:20;;;;;;;5.05;3.83;;;;;;;;;;4864744;29;20017;-55
2023/05/01 13:26:45;;;;;;;7.13;3.63;;;;;;;;;;4852295;29;20037;-56
2023/05/01 13:29:14;;;;;;;7.43;3.77;;;;;;;;;;4866980;29;20048;-57
2023/05/01 13:31:43;;;;;;;8.18;4.70;;;;;;;;;;4838390;29;20567;-56
2023/05/01 13:34:08;;;;;;;7.32;4.38;;;;;;;;;;4852797;29;20033;-58
2023/05/01 13:36:34;;;;;;;7.23;4.80;;;;;;;;;;4863454;29;20021;-55
2023/05/01 13:38:59;;;;;;;6.03;4.27;;;;;;;;;;4864208;29;20041;-57
2023/05/01 13:41:26;;;;;;;7.88;4.50;;;;;;;;;;4868067;29;20112;-55
2023/05/01 13:43:52;;;;;;;6.28;4.45;;;;;;;;;;4864509;29;20037;-53
2023/05/01 13:46:18;;;;;;;6.63;4.00;;;;;;;;;;4868251;29;20538;-53
2023/05/01 13:48:45;;;;;;;7.82;4.72;;;;;;;;;;4864880;29;20040;-56
2023/05/01 13:51:11;;;;;;;6.60;4.18;;;;;;;;;;4847995;29;20033;-54
2023/05/01 13:53:37;;;;;;;7.00;4.40;;;;;;;;;;4853246;29;20621;-52
2023/05/01 13:56:03;;;;;;;7.70;4.33;;;;;;;;;;4865339;29;20037;-54
2023/05/01 13:58:29;;;;;;;6.10;4.30;;;;;;;;;;4869613;29;20036;-57
2023/05/01 14:00:54;;;;;;;8.70;4.78;;;;;;;;;;4864663;29;20136;-56
2023/05/01 14:03:20;;;;;;;6.47;4.63;;;;;;;;;;4871767;29;20057;-55
2023/05/01 14:05:46;;;;;;;9.03;5.23;;;;;;;;;;4865933;29;20439;-56
2023/05/01 14:08:12;;;;;;;7.63;4.95;;;;;;;;;;4873077;29;20510;-58
2023/05/01 14:13:19;;;;;;;7.55;5.00;;;;;;;;;;5036642;23;20703;-56
2023/05/01 14:15:46;;;;;;;9.35;5.40;;;;;;;;;;4906482;29;20036;-54
2023/05/01 14:18:14;;;;;;;7.18;5.43;;;;;;;;;;4919142;29;20047;-56
2023/05/01 14:20:40;;;;;;;8.50;6.00;;;;;;;;;;4916010;29;20474;-56
2023/05/01 14:23:05;;;;;;;7.47;5.22;;;;;;;;;;4921559;29;20042;-54
2023/05/01 14:25:33;;;;;;;9.98;5.55;;;;;;;;;;4913984;29;20032;-56
2023/05/01 14:27:59;;;;;;;8.57;6.03;;;;;;;;;;4921283;29;20032;-58
2023/05/01 14:30:26;;;;;;;8.90;6.00;;;;;;;;;;4915643;29;20031;-56
2023/05/01 14:32:52;;;;;;;;;;;;;;;;;;4916205;29;20583;-56
2023/05/01 14:35:19;;;;;;;8.70;5.13;;;;;;;;;;4922428;29;19927;-56
2023/05/01 14:37:45;;;;;;;7.93;5.88;;;;;;;;;;4898825;29;20028;-55
2023/05/01 14:40:11;;;;;;;13.02;5.75;;;;;;;;;;4902939;29;20398;-56
2023/05/01 14:42:40;;;;;;;7.90;5.70;;;;;;;;;;4913664;29;20027;-59
2023/05/01 14:45:08;;;;;;;9.68;5.05;;;;;;;;;;4912976;29;20036;-56